createdAt,value
2023-09-26T00:00:23.925Z,65.40
2023-09-26T00:02:53.186Z,65.40
2023-09-26T00:05:21.407Z,65.50
2023-09-26T00:07:52.412Z,65.70
2023-09-26T00:10:20.692Z,65.60
2023-09-26T00:12:48.314Z,65.70
2023-09-26T00:15:15.449Z,65.50
2023-09-26T00:17:42.762Z,65.30
2023-09-26T00:20:11.686Z,66.10
2023-09-26T00:22:38.908Z,65.50
2023-09-26T00:25:07.026Z,65.60
2023-09-26T00:27:34.117Z,65.60
2023-09-26T00:30:01.167Z,65.60
2023-09-26T00:32:28.187Z,65.40
2023-09-26T00:34:55.190Z,65.30
2023-09-26T00:37:22.287Z,65.40
2023-09-26T00:39:49.410Z,65.40
2023-09-26T00:42:16.712Z,65.40
2023-09-26T00:44:43.652Z,65.40
2023-09-26T00:47:11.613Z,65.40
2023-09-26T00:49:38.714Z,65.60
2023-09-26T00:52:06.466Z,65.40
2023-09-26T00:54:34.341Z,65.50
2023-09-26T00:57:02.614Z,65.60
2023-09-26T00:59:30.649Z,65.50
2023-09-26T01:01:59.003Z,65.70
2023-09-26T01:04:26.144Z,65.60
2023-09-26T01:06:53.128Z,65.60
2023-09-26T01:09:20.228Z,65.60
2023-09-26T01:11:47.331Z,65.70
2023-09-26T01:14:14.361Z,65.60
2023-09-26T01:16:42.835Z,65.70
2023-09-26T01:19:10.090Z,65.70
2023-09-26T01:21:37.068Z,65.90
2023-09-26T01:24:04.196Z,65.70
2023-09-26T01:26:37.932Z,65.70
2023-09-26T01:29:06.080Z,65.70
2023-09-26T01:31:37.166Z,65.80
2023-09-26T01:34:04.960Z,65.80
2023-09-26T01:36:33.148Z,65.70
2023-09-26T01:39:00.372Z,66.00
2023-09-26T01:41:28.628Z,65.90
2023-09-26T01:43:55.831Z,65.90
2023-09-26T01:46:22.934Z,65.80
2023-09-26T01:48:50.642Z,66.10
2023-09-26T01:51:17.938Z,66.00
2023-09-26T01:53:45.113Z,66.00
2023-09-26T01:56:12.206Z,66.10
2023-09-26T01:58:39.239Z,66.00
2023-09-26T02:01:07.093Z,66.00
2023-09-26T02:03:34.473Z,66.00
2023-09-26T02:06:01.892Z,66.10
2023-09-26T02:08:29.206Z,66.10
2023-09-26T02:10:56.479Z,66.10
2023-09-26T02:13:23.684Z,66.10
2023-09-26T02:15:51.610Z,66.10
2023-09-26T02:18:18.721Z,66.10
2023-09-26T02:20:45.663Z,66.10
2023-09-26T02:23:12.881Z,66.10
2023-09-26T02:25:40.476Z,66.30
2023-09-26T02:28:07.553Z,66.10
2023-09-26T02:30:34.549Z,66.10
2023-09-26T02:33:01.660Z,66.10
2023-09-26T02:35:28.757Z,66.40
2023-09-26T02:37:57.900Z,66.30
2023-09-26T02:40:25.231Z,66.20
2023-09-26T02:42:52.993Z,66.10
2023-09-26T02:45:20.108Z,66.20
2023-09-26T02:47:47.713Z,66.20
2023-09-26T02:50:15.262Z,66.30
2023-09-26T02:52:44.362Z,66.40
2023-09-26T02:55:12.295Z,66.40
2023-09-26T02:57:39.469Z,66.40
2023-09-26T03:00:13.873Z,66.40
2023-09-26T03:02:41.191Z,67.20
2023-09-26T03:05:10.736Z,66.40
2023-09-26T03:07:38.732Z,66.50
2023-09-26T03:10:06.588Z,66.60
2023-09-26T03:12:33.642Z,66.50
2023-09-26T03:15:00.698Z,66.50
2023-09-26T03:17:27.713Z,66.60
2023-09-26T03:19:54.674Z,66.40
2023-09-26T03:22:21.662Z,66.50
2023-09-26T03:24:48.711Z,66.60
2023-09-26T03:27:15.657Z,66.70
2023-09-26T03:29:43.391Z,66.60
2023-09-26T03:32:10.346Z,66.50
2023-09-26T03:34:37.360Z,66.60
2023-09-26T03:37:04.332Z,66.50
2023-09-26T03:39:31.526Z,66.30
2023-09-26T03:41:58.495Z,66.40
2023-09-26T03:44:25.429Z,66.50
2023-09-26T03:46:52.618Z,66.70
2023-09-26T03:49:19.714Z,66.60
2023-09-26T03:51:46.647Z,66.50
2023-09-26T03:54:13.645Z,66.50
2023-09-26T03:56:40.606Z,66.60
2023-09-26T03:59:09.054Z,67.00
2023-09-26T04:01:36.131Z,66.60
2023-09-26T04:04:03.828Z,66.60
2023-09-26T04:06:33.255Z,66.60
2023-09-26T04:09:01.037Z,66.40
2023-09-26T04:11:28.045Z,66.60
2023-09-26T04:13:55.068Z,66.50
2023-09-26T04:16:22.184Z,66.50
2023-09-26T04:18:49.580Z,66.40
2023-09-26T04:21:16.908Z,66.60
2023-09-26T04:23:43.927Z,66.40
2023-09-26T04:26:14.986Z,66.60
2023-09-26T04:28:46.047Z,66.70
2023-09-26T04:31:14.067Z,66.50
2023-09-26T04:33:41.767Z,66.50
2023-09-26T04:36:09.074Z,66.40
2023-09-26T04:38:36.455Z,66.40
2023-09-26T04:41:06.440Z,66.40
2023-09-26T04:43:33.707Z,66.30
2023-09-26T04:46:01.608Z,66.40
2023-09-26T04:48:28.595Z,66.40
2023-09-26T04:50:55.745Z,66.40
2023-09-26T04:53:23.421Z,66.40
2023-09-26T04:55:50.920Z,66.40
2023-09-26T04:58:18.308Z,66.30
2023-09-26T05:00:45.592Z,66.50
2023-09-26T05:03:12.679Z,66.20
2023-09-26T05:05:39.748Z,66.20
2023-09-26T05:08:07.052Z,66.20
2023-09-26T05:10:38.672Z,66.30
2023-09-26T05:13:07.253Z,66.30
2023-09-26T05:15:36.142Z,66.40
2023-09-26T05:18:04.171Z,66.80
2023-09-26T05:20:31.414Z,66.40
2023-09-26T05:23:01.096Z,66.00
2023-09-26T05:25:28.820Z,66.00
2023-09-26T05:27:56.353Z,66.00
2023-09-26T05:30:23.472Z,65.70
2023-09-26T05:32:50.556Z,65.70
2023-09-26T05:35:17.723Z,65.90
2023-09-26T05:37:45.558Z,65.80
2023-09-26T05:40:12.970Z,65.90
2023-09-26T05:42:41.035Z,65.80
2023-09-26T05:45:10.266Z,65.90
2023-09-26T05:47:37.770Z,65.50
2023-09-26T05:50:05.218Z,65.30
2023-09-26T05:52:32.536Z,65.90
2023-09-26T05:54:59.655Z,64.90
2023-09-26T05:57:29.502Z,65.70
2023-09-26T05:59:56.531Z,65.10
2023-09-26T06:02:23.645Z,65.10
2023-09-26T06:04:51.835Z,65.10
2023-09-26T06:07:19.144Z,65.20
2023-09-26T06:10:00.998Z,65.00
2023-09-26T06:12:33.164Z,64.90
2023-09-26T06:15:00.289Z,64.80
2023-09-26T06:17:27.575Z,64.70
2023-09-26T06:19:56.323Z,64.50
2023-09-26T06:22:23.416Z,64.30
2023-09-26T06:24:50.512Z,64.40
2023-09-26T06:27:17.544Z,64.00
2023-09-26T06:29:44.670Z,63.70
2023-09-26T06:32:11.750Z,63.70
2023-09-26T06:34:40.964Z,63.90
2023-09-26T06:37:08.374Z,63.80
2023-09-26T06:39:35.484Z,63.60
2023-09-26T06:42:03.042Z,63.10
2023-09-26T06:44:30.625Z,62.70
2023-09-26T06:46:58.030Z,62.80
2023-09-26T06:49:25.187Z,62.80
2023-09-26T06:51:52.953Z,62.80
2023-09-26T06:54:19.992Z,62.70
2023-09-26T06:56:47.058Z,62.70
2023-09-26T06:59:14.105Z,62.60
2023-09-26T07:01:41.276Z,62.20
2023-09-26T07:04:15.312Z,62.40
2023-09-26T07:06:42.877Z,62.30
2023-09-26T07:09:11.371Z,62.00
2023-09-26T07:11:38.371Z,62.30
2023-09-26T07:14:06.223Z,61.70
2023-09-26T07:16:35.112Z,61.70
2023-09-26T07:19:02.949Z,61.50
2023-09-26T07:21:30.102Z,61.70
2023-09-26T07:23:58.044Z,61.40
2023-09-26T07:26:25.935Z,61.20
2023-09-26T07:28:54.846Z,61.20
2023-09-26T07:31:22.662Z,61.10
2023-09-26T07:33:51.293Z,61.20
2023-09-26T07:36:18.581Z,61.20
2023-09-26T07:38:45.620Z,60.80
2023-09-26T07:41:12.815Z,60.80
2023-09-26T07:43:40.909Z,60.90
2023-09-26T07:46:10.605Z,60.90
2023-09-26T07:48:39.140Z,61.00
2023-09-26T07:51:07.935Z,60.90
2023-09-26T07:53:36.040Z,60.70
2023-09-26T07:56:03.449Z,60.70
2023-09-26T07:58:30.399Z,60.80
2023-09-26T08:01:00.425Z,60.70
2023-09-26T08:03:27.934Z,60.80
2023-09-26T08:06:05.440Z,60.80
2023-09-26T08:08:33.052Z,60.90
2023-09-26T08:11:29.608Z,60.80
2023-09-26T08:13:57.652Z,60.10
2023-09-26T08:16:25.098Z,60.60
2023-09-26T08:18:52.306Z,60.40
2023-09-26T08:21:19.422Z,60.40
2023-09-26T08:23:46.440Z,60.30
2023-09-26T08:26:13.502Z,60.40
2023-09-26T08:28:40.998Z,60.50
2023-09-26T08:31:11.331Z,60.40
2023-09-26T08:33:38.973Z,60.00
2023-09-26T08:36:19.654Z,60.10
2023-09-26T08:38:48.584Z,59.80
2023-09-26T08:41:21.706Z,59.90
2023-09-26T08:43:49.393Z,60.20
2023-09-26T08:46:17.940Z,60.20
2023-09-26T08:48:46.377Z,60.00
2023-09-26T08:51:14.240Z,60.10
2023-09-26T08:53:41.320Z,60.00
2023-09-26T08:56:08.397Z,60.20
2023-09-26T08:58:36.130Z,60.30
2023-09-26T09:01:04.362Z,60.40
2023-09-26T09:03:31.784Z,60.60
2023-09-26T09:05:58.790Z,61.10
2023-09-26T09:08:26.069Z,61.00
2023-09-26T09:10:55.784Z,60.90
2023-09-26T09:13:30.195Z,61.00
2023-09-26T09:16:16.838Z,61.00
2023-09-26T09:18:53.133Z,60.60
2023-09-26T09:21:28.948Z,60.70
2023-09-26T09:24:00.722Z,60.60
2023-09-26T09:26:34.130Z,60.90
2023-09-26T09:29:30.886Z,60.80
2023-09-26T09:31:58.377Z,61.10
2023-09-26T09:34:28.648Z,61.20
2023-09-26T09:36:57.699Z,61.30
2023-09-26T09:39:25.166Z,61.50
2023-09-26T09:41:58.494Z,61.60
2023-09-26T09:44:26.176Z,62.20
2023-09-26T09:47:00.137Z,62.10
2023-09-26T09:49:32.352Z,61.80
2023-09-26T09:52:05.695Z,61.70
2023-09-26T09:54:34.836Z,61.70
2023-09-26T09:57:08.022Z,62.00
2023-09-26T09:59:38.021Z,62.10
2023-09-26T10:02:07.561Z,62.00
2023-09-26T10:04:36.724Z,62.00
2023-09-26T10:07:03.871Z,62.20
2023-09-26T10:09:33.817Z,62.20
2023-09-26T10:12:03.108Z,62.10
2023-09-26T10:14:33.375Z,62.10
2023-09-26T10:17:03.934Z,62.20
2023-09-26T10:19:47.057Z,62.10
2023-09-26T10:22:22.718Z,61.90
2023-09-26T10:24:54.172Z,61.90
2023-09-26T10:27:47.363Z,61.80
2023-09-26T10:30:25.357Z,62.10
2023-09-26T10:32:56.263Z,62.30
2023-09-26T10:35:26.191Z,62.20
2023-09-26T10:38:08.142Z,62.10
2023-09-26T10:40:35.232Z,62.20
2023-09-26T10:43:33.038Z,62.50
2023-09-26T10:45:50.944Z,62.50
2023-09-26T10:48:22.212Z,62.30
2023-09-26T10:50:49.987Z,62.50
2023-09-26T10:53:18.465Z,62.80
2023-09-26T10:55:46.115Z,62.80
2023-09-26T10:58:21.882Z,62.80
2023-09-26T11:00:54.015Z,62.50
2023-09-26T11:03:22.449Z,62.60
2023-09-26T11:08:37.934Z,62.50
2023-09-26T11:11:05.044Z,62.40
2023-09-26T11:13:32.189Z,62.90
2023-09-26T11:15:59.232Z,63.10
2023-09-26T11:18:26.868Z,62.90
2023-09-26T11:21:02.711Z,62.80
2023-09-26T11:23:41.137Z,62.40
2023-09-26T11:26:09.551Z,61.90
2023-09-26T11:28:37.157Z,61.90
2023-09-26T11:31:04.581Z,62.20
2023-09-26T11:33:32.274Z,62.30
2023-09-26T11:35:59.375Z,62.10
2023-09-26T11:38:26.401Z,62.60
2023-09-26T11:40:56.572Z,62.80
2023-09-26T11:43:23.711Z,62.90
2023-09-26T11:46:06.185Z,63.00
2023-09-26T11:48:33.429Z,62.90
2023-09-26T11:51:00.981Z,62.80
2023-09-26T11:53:30.810Z,62.70
2023-09-26T11:55:59.415Z,62.60
2023-09-26T11:58:27.862Z,62.30
2023-09-26T12:00:55.629Z,62.10
2023-09-26T12:03:22.722Z,61.70
2023-09-26T12:05:50.343Z,61.80
2023-09-26T12:08:17.338Z,62.30
2023-09-26T12:10:44.595Z,62.30
2023-09-26T12:13:12.181Z,62.10
2023-09-26T12:15:39.545Z,61.90
2023-09-26T12:18:06.874Z,62.40
2023-09-26T12:20:35.062Z,62.50
2023-09-26T12:23:03.333Z,62.70
2023-09-26T12:25:31.424Z,62.50
2023-09-26T12:27:58.756Z,62.60
2023-09-26T12:30:26.002Z,62.60
2023-09-26T12:32:53.393Z,62.70
2023-09-26T12:35:20.687Z,62.80
2023-09-26T12:37:47.982Z,63.00
2023-09-26T12:40:15.290Z,63.00
2023-09-26T12:42:43.664Z,63.10
2023-09-26T12:45:11.778Z,63.10
2023-09-26T12:47:39.507Z,63.10
2023-09-26T12:50:10.575Z,63.10
2023-09-26T12:52:40.635Z,62.90
2023-09-26T12:55:09.039Z,63.10
2023-09-26T12:57:36.558Z,63.20
2023-09-26T13:00:08.299Z,63.10
2023-09-26T13:02:35.593Z,63.10
2023-09-26T13:05:03.188Z,63.10
2023-09-26T13:07:30.746Z,63.20
2023-09-26T13:09:57.904Z,63.20
2023-09-26T13:12:25.718Z,63.10
2023-09-26T13:14:53.014Z,63.10
2023-09-26T13:17:20.433Z,63.20
2023-09-26T13:19:47.570Z,63.20
2023-09-26T13:22:15.372Z,63.20
2023-09-26T13:24:46.179Z,63.20
2023-09-26T13:27:13.265Z,63.20
2023-09-26T13:29:40.361Z,63.10
2023-09-26T13:32:07.821Z,63.10
2023-09-26T13:34:35.057Z,62.90
2023-09-26T13:37:02.240Z,63.00
2023-09-26T13:39:29.898Z,63.10
2023-09-26T13:41:57.116Z,63.20
2023-09-26T13:44:24.137Z,63.30
2023-09-26T13:46:51.225Z,64.00
2023-09-26T13:49:18.426Z,63.00
2023-09-26T13:51:45.445Z,63.20
2023-09-26T13:54:13.716Z,63.60
2023-09-26T13:56:40.771Z,63.60
2023-09-26T13:59:07.941Z,63.40
2023-09-26T14:01:36.682Z,63.80
2023-09-26T14:04:04.363Z,63.60
2023-09-26T14:06:31.531Z,63.60
2023-09-26T14:08:58.662Z,63.60
2023-09-26T14:11:26.285Z,63.50
2023-09-26T14:13:53.356Z,63.40
2023-09-26T14:16:20.527Z,63.50
2023-09-26T14:18:47.680Z,63.50
2023-09-26T14:21:19.001Z,63.50
2023-09-26T14:23:46.097Z,63.40
2023-09-26T14:26:13.579Z,63.40
2023-09-26T14:28:45.161Z,63.40
2023-09-26T14:31:12.758Z,63.30
2023-09-26T14:33:41.493Z,63.20
2023-09-26T14:36:08.858Z,63.20
2023-09-26T14:38:35.944Z,63.30
2023-09-26T14:41:03.115Z,63.20
2023-09-26T14:43:30.613Z,63.20
2023-09-26T14:45:57.669Z,63.30
2023-09-26T14:48:24.734Z,63.30
2023-09-26T14:50:51.827Z,63.40
2023-09-26T14:53:19.293Z,63.30
2023-09-26T14:55:46.451Z,63.30
2023-09-26T14:58:13.455Z,63.30
2023-09-26T15:00:44.665Z,63.20
2023-09-26T15:03:12.360Z,63.30
2023-09-26T15:05:39.808Z,63.30
2023-09-26T15:08:07.202Z,63.30
2023-09-26T15:10:35.237Z,63.30
2023-09-26T15:13:02.377Z,63.30
2023-09-26T15:15:30.783Z,63.40
2023-09-26T15:17:58.712Z,63.30
2023-09-26T15:20:27.010Z,63.20
2023-09-26T15:22:54.298Z,63.40
2023-09-26T15:25:21.490Z,63.40
2023-09-26T15:27:48.558Z,63.50
2023-09-26T15:30:15.875Z,63.40
2023-09-26T15:32:45.001Z,63.40
2023-09-26T15:35:12.174Z,63.40
2023-09-26T15:37:39.136Z,63.50
2023-09-26T15:40:07.416Z,63.50
2023-09-26T15:42:35.164Z,63.50
2023-09-26T15:45:03.880Z,63.60
2023-09-26T15:47:31.331Z,63.60
2023-09-26T15:49:58.500Z,63.70
2023-09-26T15:52:25.632Z,63.90
2023-09-26T15:54:53.052Z,63.90
2023-09-26T15:57:20.191Z,64.00
2023-09-26T15:59:49.090Z,63.90
2023-09-26T16:02:16.428Z,63.90
2023-09-26T16:04:44.203Z,63.90
2023-09-26T16:07:11.479Z,63.80
2023-09-26T16:09:39.132Z,63.90
2023-09-26T16:12:07.292Z,63.70
2023-09-26T16:14:34.877Z,63.80
2023-09-26T16:17:02.260Z,63.80
2023-09-26T16:19:29.394Z,63.80
2023-09-26T16:21:56.432Z,63.80
2023-09-26T16:24:23.412Z,63.80
2023-09-26T16:26:50.430Z,63.90
2023-09-26T16:29:17.581Z,63.90
2023-09-26T16:31:44.680Z,63.80
2023-09-26T16:34:11.729Z,63.90
2023-09-26T16:36:38.754Z,63.80
2023-09-26T16:39:05.957Z,63.90
2023-09-26T16:41:33.171Z,63.90
2023-09-26T16:44:00.362Z,63.80
2023-09-26T16:46:28.202Z,63.80
2023-09-26T16:48:55.468Z,63.80
2023-09-26T16:51:22.666Z,63.80
2023-09-26T16:53:57.015Z,63.80
2023-09-26T16:56:24.296Z,64.00
2023-09-26T16:58:53.527Z,64.10
2023-09-26T17:01:20.915Z,64.20
2023-09-26T17:03:49.814Z,64.40
2023-09-26T17:06:17.089Z,64.50
2023-09-26T17:08:44.313Z,64.50
2023-09-26T17:11:11.928Z,64.50
2023-09-26T17:13:39.932Z,64.60
2023-09-26T17:16:07.219Z,64.50
2023-09-26T17:18:34.356Z,64.50
2023-09-26T17:21:01.464Z,64.40
2023-09-26T17:23:29.024Z,64.40
2023-09-26T17:25:56.438Z,64.50
2023-09-26T17:28:23.718Z,64.60
2023-09-26T17:30:53.570Z,64.60
2023-09-26T17:33:20.720Z,64.50
2023-09-26T17:35:47.745Z,64.50
2023-09-26T17:38:14.916Z,64.60
2023-09-26T17:40:42.054Z,64.60
2023-09-26T17:43:09.200Z,64.50
2023-09-26T17:45:37.086Z,64.50
2023-09-26T17:48:04.528Z,64.40
2023-09-26T17:50:31.689Z,64.40
2023-09-26T17:52:58.726Z,64.50
2023-09-26T17:55:25.762Z,64.50
2023-09-26T17:57:52.700Z,64.40
2023-09-26T18:00:19.632Z,64.40
2023-09-26T18:02:46.562Z,64.50
2023-09-26T18:05:13.876Z,64.50
2023-09-26T18:07:41.101Z,64.60
2023-09-26T18:10:09.399Z,64.60
2023-09-26T18:12:37.252Z,64.60
2023-09-26T18:15:05.099Z,64.70
2023-09-26T18:17:32.637Z,64.80
2023-09-26T18:20:00.429Z,64.80
2023-09-26T18:22:28.185Z,64.80
2023-09-26T18:24:55.224Z,64.80
2023-09-26T18:27:22.850Z,64.80
2023-09-26T18:29:50.548Z,64.90
2023-09-26T18:32:17.743Z,65.00
2023-09-26T18:34:45.129Z,65.00
2023-09-26T18:37:12.450Z,65.00
2023-09-26T18:39:39.939Z,65.80
2023-09-26T18:42:07.451Z,65.10
2023-09-26T18:44:37.656Z,65.20
2023-09-26T18:47:05.211Z,65.10
2023-09-26T18:49:32.432Z,65.20
2023-09-26T18:51:59.881Z,65.30
2023-09-26T18:54:26.915Z,65.30
2023-09-26T18:56:54.537Z,65.40
2023-09-26T18:59:21.905Z,65.40
2023-09-26T19:01:49.032Z,65.40
2023-09-26T19:04:16.830Z,65.40
2023-09-26T19:06:44.159Z,65.60
2023-09-26T19:09:11.691Z,66.30
2023-09-26T19:11:43.405Z,65.60
2023-09-26T19:14:10.495Z,65.50
2023-09-26T19:16:37.462Z,65.60
2023-09-26T19:19:06.044Z,65.50
2023-09-26T19:21:34.530Z,65.50
2023-09-26T19:24:01.861Z,65.60
2023-09-26T19:26:29.097Z,65.60
2023-09-26T19:28:57.405Z,65.60
2023-09-26T19:31:24.608Z,65.70
2023-09-26T19:33:51.915Z,65.60
2023-09-26T19:36:18.829Z,65.60
2023-09-26T19:38:45.806Z,65.70
2023-09-26T19:41:12.869Z,65.70
2023-09-26T19:43:39.974Z,65.80
2023-09-26T19:46:07.074Z,65.80
2023-09-26T19:48:34.693Z,65.80
2023-09-26T19:51:01.771Z,65.80
2023-09-26T19:53:28.762Z,65.80
2023-09-26T19:55:56.082Z,65.80
2023-09-26T19:58:23.153Z,65.80
2023-09-26T20:00:50.177Z,65.80
2023-09-26T20:03:17.350Z,65.70
2023-09-26T20:05:44.523Z,65.80
2023-09-26T20:08:11.688Z,65.70
2023-09-26T20:10:38.717Z,65.70
2023-09-26T20:13:06.211Z,65.80
2023-09-26T20:15:33.739Z,65.70
2023-09-26T20:18:00.865Z,65.70
2023-09-26T20:20:28.004Z,65.60
2023-09-26T20:22:55.200Z,65.70
2023-09-26T20:25:22.382Z,65.80
2023-09-26T20:27:53.370Z,65.70
2023-09-26T20:30:21.891Z,65.90
2023-09-26T20:32:49.008Z,65.90
2023-09-26T20:35:16.205Z,65.90
2023-09-26T20:37:43.250Z,65.80
2023-09-26T20:40:13.292Z,65.80
2023-09-26T20:42:40.511Z,65.80
2023-09-26T20:45:08.948Z,65.90
2023-09-26T20:47:36.064Z,65.90
2023-09-26T20:50:03.500Z,66.20
2023-09-26T20:52:35.893Z,66.10
2023-09-26T20:55:02.919Z,66.10
2023-09-26T20:57:30.529Z,66.00
2023-09-26T20:59:57.778Z,65.90
2023-09-26T21:02:24.870Z,65.90
2023-09-26T21:04:51.980Z,66.00
2023-09-26T21:07:19.111Z,66.00
2023-09-26T21:09:46.134Z,65.90
2023-09-26T21:12:14.110Z,65.90
2023-09-26T21:14:43.794Z,65.90
2023-09-26T21:17:10.986Z,65.90
2023-09-26T21:19:37.988Z,66.00
2023-09-26T21:22:04.931Z,66.20
2023-09-26T21:24:32.161Z,66.30
2023-09-26T21:26:59.204Z,66.30
2023-09-26T21:29:26.839Z,66.40
2023-09-26T21:31:54.026Z,66.30
2023-09-26T21:34:21.106Z,66.30
2023-09-26T21:36:48.043Z,66.40
2023-09-26T21:39:15.102Z,66.30
2023-09-26T21:41:42.217Z,66.20
2023-09-26T21:44:09.442Z,66.20
2023-09-26T21:46:36.642Z,66.20
2023-09-26T21:49:03.758Z,66.20
2023-09-26T21:51:30.839Z,66.30
2023-09-26T21:53:57.812Z,66.20
2023-09-26T21:56:24.871Z,66.30
2023-09-26T21:58:52.227Z,66.30
2023-09-26T22:01:21.221Z,66.30
2023-09-26T22:03:48.508Z,66.30
2023-09-26T22:06:15.831Z,66.30
2023-09-26T22:08:43.029Z,66.20
2023-09-26T22:11:10.079Z,66.20
2023-09-26T22:13:37.074Z,66.30
2023-09-26T22:16:04.183Z,66.30
2023-09-26T22:18:31.332Z,66.30
2023-09-26T22:20:58.363Z,66.30
2023-09-26T22:23:26.662Z,66.30
2023-09-26T22:25:53.961Z,66.40
2023-09-26T22:28:21.144Z,66.30
2023-09-26T22:30:48.065Z,66.40
2023-09-26T22:33:15.571Z,66.40
2023-09-26T22:35:42.648Z,66.50
2023-09-26T22:38:09.788Z,66.40
2023-09-26T22:40:48.980Z,66.40
2023-09-26T22:43:19.640Z,66.50
2023-09-26T22:45:47.255Z,66.50
2023-09-26T22:48:14.640Z,66.40
2023-09-26T22:50:41.728Z,66.40
2023-09-26T22:53:08.755Z,66.50
2023-09-26T22:55:35.820Z,66.40
2023-09-26T22:58:02.881Z,66.40
2023-09-26T23:00:30.446Z,66.30
2023-09-26T23:02:57.827Z,66.30
2023-09-26T23:05:24.957Z,66.40
2023-09-26T23:07:51.959Z,66.40
2023-09-26T23:10:19.099Z,66.30
2023-09-26T23:12:46.113Z,66.30
2023-09-26T23:15:13.116Z,66.30
2023-09-26T23:17:40.145Z,66.40
2023-09-26T23:20:09.771Z,66.40
2023-09-26T23:22:37.195Z,66.50
2023-09-26T23:25:10.897Z,66.50
2023-09-26T23:27:39.135Z,66.50
2023-09-26T23:30:13.525Z,66.50
2023-09-26T23:32:45.069Z,66.50
2023-09-26T23:35:20.210Z,66.50
2023-09-26T23:37:49.798Z,66.50
2023-09-26T23:40:18.119Z,66.50
2023-09-26T23:42:45.236Z,66.40
2023-09-26T23:45:14.376Z,66.50
2023-09-26T23:47:42.254Z,66.50
2023-09-26T23:50:11.827Z,66.50
2023-09-26T23:52:40.241Z,66.50
2023-09-26T23:55:09.891Z,66.60
2023-09-26T23:57:37.834Z,66.60
